sensor_id;sensor_type;location;lat;lon;timestamp;temperature;humidity
44223;DHT22;29895;48.804;9.386;2023-05-01T00:01:32;8.60;99.90
44223;DHT22;29895;48.804;9.386;2023-05-01T00:03:58;8.60;99.90
44223;DHT22;29895;48.804;9.386;2023-05-01T00:06:23;8.60;99.90
44223;DHT22;29895;48.804;9.386;2023-05-01T00:08:49;8.60;99.90
44223;DHT22;29895;48.804;9.386;2023-05-01T00:11:15;8.60;99.90
44223;DHT22;29895;48.804;9.386;2023-05-01T00:13:41;8.50;99.90
44223;DHT22;29895;48.804;9.386;2023-05-01T00:16:07;8.50;99.90
44223;DHT22;29895;48.804;9.386;2023-05-01T00:18:33;8.50;99.90
44223;DHT22;29895;48.804;9.386;2023-05-01T00:20:59;8.60;99.90
44223;DHT22;29895;48.804;9.386;2023-05-01T00:23:24;8.50;99.90
44223;DHT22;29895;48.804;9.386;2023-05-01T00:25:52;8.50;99.90
44223;DHT22;29895;48.804;9.386;2023-05-01T00:28:18;8.50;99.90
44223;DHT22;29895;48.804;9.386;2023-05-01T00:30:44;8.50;99.90
44223;DHT22;29895;48.804;9.386;2023-05-01T00:33:10;8.50;99.90
44223;DHT22;29895;48.804;9.386;2023-05-01T00:35:36;8.50;99.90
44223;DHT22;29895;48.804;9.386;2023-05-01T00:38:01;8.40;99.90
44223;DHT22;29895;48.804;9.386;2023-05-01T00:40:27;8.40;99.90
44223;DHT22;29895;48.804;9.386;2023-05-01T00:42:53;8.40;99.90
44223;DHT22;29895;48.804;9.386;2023-05-01T00:45:19;8.40;99.90
44223;DHT22;29895;48.804;9.386;2023-05-01T00:47:45;8.40;99.90
44223;DHT22;29895;48.804;9.386;2023-05-01T00:50:12;8.40;99.90
44223;DHT22;29895;48.804;9.386;2023-05-01T00:52:38;8.40;99.90
44223;DHT22;29895;48.804;9.386;2023-05-01T00:55:04;8.30;99.90
44223;DHT22;29895;48.804;9.386;2023-05-01T00:57:31;8.30;99.90
44223;DHT22;29895;48.804;9.386;2023-05-01T00:59:57;8.30;99.90
44223;DHT22;29895;48.804;9.386;2023-05-01T01:02:23;8.30;99.90
44223;DHT22;29895;48.804;9.386;2023-05-01T01:04:48;8.30;99.90
44223;DHT22;29895;48.804;9.386;2023-05-01T01:07:18;8.30;99.90
44223;DHT22;29895;48.804;9.386;2023-05-01T01:10:26;8.30;99.90
44223;DHT22;29895;48.804;9.386;2023-05-01T01:13:07;8.40;99.90
44223;DHT22;29895;48.804;9.386;2023-05-01T01:15:44;8.40;99.90
44223;DHT22;29895;48.804;9.386;2023-05-01T01:18:22;8.40;99.90
44223;DHT22;29895;48.804;9.386;2023-05-01T01:21:00;8.40;99.90
44223;DHT22;29895;48.804;9.386;2023-05-01T01:34:35;8.40;99.90
44223;DHT22;29895;48.804;9.386;2023-05-01T01:37:10;8.40;99.90
44223;DHT22;29895;48.804;9.386;2023-05-01T01:42:29;8.50;99.90
44223;DHT22;29895;48.804;9.386;2023-05-01T01:44:59;8.50;99.90
44223;DHT22;29895;48.804;9.386;2023-05-01T01:47:29;8.60;99.90
44223;DHT22;29895;48.804;9.386;2023-05-01T01:49:58;8.60;99.90
44223;DHT22;29895;48.804;9.386;2023-05-01T01:52:26;8.60;99.90
44223;DHT22;29895;48.804;9.386;2023-05-01T01:54:59;8.60;99.90
44223;DHT22;29895;48.804;9.386;2023-05-01T01:57:27;8.60;99.90
44223;DHT22;29895;48.804;9.386;2023-05-01T01:59:54;8.60;99.90
44223;DHT22;29895;48.804;9.386;2023-05-01T02:02:21;8.50;99.90
44223;DHT22;29895;48.804;9.386;2023-05-01T02:04:47;8.50;99.90
44223;DHT22;29895;48.804;9.386;2023-05-01T02:07:16;8.50;99.90
44223;DHT22;29895;48.804;9.386;2023-05-01T02:09:44;8.50;99.90
44223;DHT22;29895;48.804;9.386;2023-05-01T02:12:11;8.50;99.90
44223;DHT22;29895;48.804;9.386;2023-05-01T02:14:38;8.50;99.90
44223;DHT22;29895;48.804;9.386;2023-05-01T02:17:04;8.50;99.90
44223;DHT22;29895;48.804;9.386;2023-05-01T02:19:32;8.50;99.90
44223;DHT22;29895;48.804;9.386;2023-05-01T02:22:00;8.50;99.90
44223;DHT22;29895;48.804;9.386;2023-05-01T02:24:27;8.50;99.90
44223;DHT22;29895;48.804;9.386;2023-05-01T02:29:57;8.60;99.90
44223;DHT22;29895;48.804;9.386;2023-05-01T02:32:25;8.60;99.90
44223;DHT22;29895;48.804;9.386;2023-05-01T02:34:53;8.60;99.90
44223;DHT22;29895;48.804;9.386;2023-05-01T02:37:19;8.60;99.90
44223;DHT22;29895;48.804;9.386;2023-05-01T02:39:45;8.60;99.90
44223;DHT22;29895;48.804;9.386;2023-05-01T02:42:12;8.60;99.90
44223;DHT22;29895;48.804;9.386;2023-05-01T02:45:07;8.60;99.90
44223;DHT22;29895;48.804;9.386;2023-05-01T02:47:37;8.70;99.90
44223;DHT22;29895;48.804;9.386;2023-05-01T02:50:04;8.70;99.90
44223;DHT22;29895;48.804;9.386;2023-05-01T02:52:30;8.70;99.90
44223;DHT22;29895;48.804;9.386;2023-05-01T02:54:56;8.70;99.90
44223;DHT22;29895;48.804;9.386;2023-05-01T02:57:22;8.70;99.90
44223;DHT22;29895;48.804;9.386;2023-05-01T02:59:48;8.80;99.90
44223;DHT22;29895;48.804;9.386;2023-05-01T03:02:14;8.80;99.90
44223;DHT22;29895;48.804;9.386;2023-05-01T03:04:46;8.90;99.90
44223;DHT22;29895;48.804;9.386;2023-05-01T03:07:14;8.90;99.90
44223;DHT22;29895;48.804;9.386;2023-05-01T03:09:40;8.90;99.90
44223;DHT22;29895;48.804;9.386;2023-05-01T03:12:06;8.80;99.90
44223;DHT22;29895;48.804;9.386;2023-05-01T03:14:31;8.80;99.90
44223;DHT22;29895;48.804;9.386;2023-05-01T03:16:57;8.80;99.90
44223;DHT22;29895;48.804;9.386;2023-05-01T03:19:23;8.80;99.90
44223;DHT22;29895;48.804;9.386;2023-05-01T03:21:48;8.80;99.90
44223;DHT22;29895;48.804;9.386;2023-05-01T03:24:14;8.80;99.90
44223;DHT22;29895;48.804;9.386;2023-05-01T03:26:40;8.80;99.90
44223;DHT22;29895;48.804;9.386;2023-05-01T03:29:05;8.80;99.90
44223;DHT22;29895;48.804;9.386;2023-05-01T03:31:31;8.80;99.90
44223;DHT22;29895;48.804;9.386;2023-05-01T03:33:56;8.80;99.90
44223;DHT22;29895;48.804;9.386;2023-05-01T03:36:22;8.80;99.90
44223;DHT22;29895;48.804;9.386;2023-05-01T03:38:49;8.80;99.90
44223;DHT22;29895;48.804;9.386;2023-05-01T03:41:15;8.80;99.90
44223;DHT22;29895;48.804;9.386;2023-05-01T03:43:40;8.80;99.90
44223;DHT22;29895;48.804;9.386;2023-05-01T03:46:06;8.80;99.90
44223;DHT22;29895;48.804;9.386;2023-05-01T03:48:32;8.80;99.90
44223;DHT22;29895;48.804;9.386;2023-05-01T03:50:57;8.80;99.90
44223;DHT22;29895;48.804;9.386;2023-05-01T03:53:23;8.80;99.90
44223;DHT22;29895;48.804;9.386;2023-05-01T03:55:49;8.80;99.90
44223;DHT22;29895;48.804;9.386;2023-05-01T03:58:14;8.90;99.90
44223;DHT22;29895;48.804;9.386;2023-05-01T04:00:40;8.90;99.90
44223;DHT22;29895;48.804;9.386;2023-05-01T04:03:06;8.90;99.90
44223;DHT22;29895;48.804;9.386;2023-05-01T04:05:32;8.90;99.90
44223;DHT22;29895;48.804;9.386;2023-05-01T04:08:00;8.90;99.90
44223;DHT22;29895;48.804;9.386;2023-05-01T04:10:26;8.90;99.90
44223;DHT22;29895;48.804;9.386;2023-05-01T04:12:52;8.90;99.90
44223;DHT22;29895;48.804;9.386;2023-05-01T04:15:17;8.80;99.90
44223;DHT22;29895;48.804;9.386;2023-05-01T04:17:43;8.90;99.90
44223;DHT22;29895;48.804;9.386;2023-05-01T04:20:09;8.90;99.90
44223;DHT22;29895;48.804;9.386;2023-05-01T04:22:35;8.90;99.90
44223;DHT22;29895;48.804;9.386;2023-05-01T04:25:02;8.90;99.90
44223;DHT22;29895;48.804;9.386;2023-05-01T04:27:29;8.90;99.90
44223;DHT22;29895;48.804;9.386;2023-05-01T04:29:55;9.00;99.90
44223;DHT22;29895;48.804;9.386;2023-05-01T04:32:21;9.00;99.90
44223;DHT22;29895;48.804;9.386;2023-05-01T04:34:46;9.10;99.90
44223;DHT22;29895;48.804;9.386;2023-05-01T04:37:12;9.10;99.90
44223;DHT22;29895;48.804;9.386;2023-05-01T04:39:38;9.00;99.90
44223;DHT22;29895;48.804;9.386;2023-05-01T04:42:04;9.00;99.90
44223;DHT22;29895;48.804;9.386;2023-05-01T04:44:33;9.10;99.90
44223;DHT22;29895;48.804;9.386;2023-05-01T04:47:03;9.10;99.90
44223;DHT22;29895;48.804;9.386;2023-05-01T04:49:29;9.10;99.90
44223;DHT22;29895;48.804;9.386;2023-05-01T04:51:55;9.10;99.90
44223;DHT22;29895;48.804;9.386;2023-05-01T04:54:21;9.20;99.90
44223;DHT22;29895;48.804;9.386;2023-05-01T04:56:47;9.20;99.90
44223;DHT22;29895;48.804;9.386;2023-05-01T04:59:13;9.30;99.90
44223;DHT22;29895;48.804;9.386;2023-05-01T05:01:39;9.30;99.90
44223;DHT22;29895;48.804;9.386;2023-05-01T05:04:04;9.30;99.90
44223;DHT22;29895;48.804;9.386;2023-05-01T05:06:30;9.30;99.90
44223;DHT22;29895;48.804;9.386;2023-05-01T05:08:56;9.30;99.90
44223;DHT22;29895;48.804;9.386;2023-05-01T05:11:24;9.40;99.90
44223;DHT22;29895;48.804;9.386;2023-05-01T05:13:53;9.40;99.90
44223;DHT22;29895;48.804;9.386;2023-05-01T05:16:18;9.50;99.90
44223;DHT22;29895;48.804;9.386;2023-05-01T05:18:44;9.60;99.90
44223;DHT22;29895;48.804;9.386;2023-05-01T05:21:10;9.60;99.90
44223;DHT22;29895;48.804;9.386;2023-05-01T05:23:36;9.70;99.90
44223;DHT22;29895;48.804;9.386;2023-05-01T05:26:02;9.80;99.90
44223;DHT22;29895;48.804;9.386;2023-05-01T05:28:28;9.80;99.90
44223;DHT22;29895;48.804;9.386;2023-05-01T05:30:54;9.90;99.90
44223;DHT22;29895;48.804;9.386;2023-05-01T05:33:20;9.90;99.90
44223;DHT22;29895;48.804;9.386;2023-05-01T05:35:47;9.90;99.90
44223;DHT22;29895;48.804;9.386;2023-05-01T05:38:16;9.80;99.90
44223;DHT22;29895;48.804;9.386;2023-05-01T05:40:42;9.90;99.90
44223;DHT22;29895;48.804;9.386;2023-05-01T05:43:07;9.90;99.90
44223;DHT22;29895;48.804;9.386;2023-05-01T05:45:35;10.00;99.90
44223;DHT22;29895;48.804;9.386;2023-05-01T05:48:01;10.10;99.90
44223;DHT22;29895;48.804;9.386;2023-05-01T05:50:26;10.10;99.90
44223;DHT22;29895;48.804;9.386;2023-05-01T05:52:52;10.20;99.90
44223;DHT22;29895;48.804;9.386;2023-05-01T05:55:18;10.30;99.90
44223;DHT22;29895;48.804;9.386;2023-05-01T05:57:43;10.40;99.90
44223;DHT22;29895;48.804;9.386;2023-05-01T06:00:10;10.50;99.90
44223;DHT22;29895;48.804;9.386;2023-05-01T06:02:35;10.50;99.90
44223;DHT22;29895;48.804;9.386;2023-05-01T06:05:02;10.60;99.90
44223;DHT22;29895;48.804;9.386;2023-05-01T06:07:28;10.80;99.90
44223;DHT22;29895;48.804;9.386;2023-05-01T06:10:05;10.80;99.90
44223;DHT22;29895;48.804;9.386;2023-05-01T06:12:31;10.80;99.90
44223;DHT22;29895;48.804;9.386;2023-05-01T06:14:58;10.80;99.90
44223;DHT22;29895;48.804;9.386;2023-05-01T06:17:24;10.90;99.90
44223;DHT22;29895;48.804;9.386;2023-05-01T06:19:50;10.90;99.90
44223;DHT22;29895;48.804;9.386;2023-05-01T06:22:19;10.90;99.90
44223;DHT22;29895;48.804;9.386;2023-05-01T06:24:44;10.90;99.90
44223;DHT22;29895;48.804;9.386;2023-05-01T06:27:10;11.00;99.90
44223;DHT22;29895;48.804;9.386;2023-05-01T06:29:36;11.00;99.90
44223;DHT22;29895;48.804;9.386;2023-05-01T06:32:03;11.10;99.90
44223;DHT22;29895;48.804;9.386;2023-05-01T06:34:29;11.10;99.90
44223;DHT22;29895;48.804;9.386;2023-05-01T06:36:55;11.10;99.90
44223;DHT22;29895;48.804;9.386;2023-05-01T06:39:20;11.10;99.90
44223;DHT22;29895;48.804;9.386;2023-05-01T06:41:47;11.00;99.90
44223;DHT22;29895;48.804;9.386;2023-05-01T06:44:12;11.00;99.90
44223;DHT22;29895;48.804;9.386;2023-05-01T06:46:38;11.10;99.90
44223;DHT22;29895;48.804;9.386;2023-05-01T06:49:04;11.00;99.90
44223;DHT22;29895;48.804;9.386;2023-05-01T06:51:29;11.10;99.90
44223;DHT22;29895;48.804;9.386;2023-05-01T06:54:04;11.20;99.90
44223;DHT22;29895;48.804;9.386;2023-05-01T06:56:30;11.20;99.90
44223;DHT22;29895;48.804;9.386;2023-05-01T06:58:56;11.20;99.90
44223;DHT22;29895;48.804;9.386;2023-05-01T07:01:22;11.30;99.90
44223;DHT22;29895;48.804;9.386;2023-05-01T07:03:47;11.40;99.90
44223;DHT22;29895;48.804;9.386;2023-05-01T07:06:13;11.40;99.90
44223;DHT22;29895;48.804;9.386;2023-05-01T07:08:39;11.50;99.90
44223;DHT22;29895;48.804;9.386;2023-05-01T07:11:05;11.60;99.90
44223;DHT22;29895;48.804;9.386;2023-05-01T07:13:31;11.60;99.90
44223;DHT22;29895;48.804;9.386;2023-05-01T07:15:57;11.70;99.90
44223;DHT22;29895;48.804;9.386;2023-05-01T07:18:23;11.70;99.90
44223;DHT22;29895;48.804;9.386;2023-05-01T07:20:48;11.60;99.90
44223;DHT22;29895;48.804;9.386;2023-05-01T07:23:14;11.60;99.90
44223;DHT22;29895;48.804;9.386;2023-05-01T07:25:40;11.70;99.90
44223;DHT22;29895;48.804;9.386;2023-05-01T07:28:07;11.60;99.90
44223;DHT22;29895;48.804;9.386;2023-05-01T07:30:35;11.60;99.90
44223;DHT22;29895;48.804;9.386;2023-05-01T07:33:02;11.60;99.90
44223;DHT22;29895;48.804;9.386;2023-05-01T07:35:29;11.60;99.90
44223;DHT22;29895;48.804;9.386;2023-05-01T07:37:55;11.70;99.90
44223;DHT22;29895;48.804;9.386;2023-05-01T07:40:21;11.70;99.90
44223;DHT22;29895;48.804;9.386;2023-05-01T07:42:46;11.80;99.90
44223;DHT22;29895;48.804;9.386;2023-05-01T07:45:12;12.00;99.90
44223;DHT22;29895;48.804;9.386;2023-05-01T07:47:38;12.20;99.90
44223;DHT22;29895;48.804;9.386;2023-05-01T07:50:03;12.30;99.90
44223;DHT22;29895;48.804;9.386;2023-05-01T07:52:29;12.30;99.90
44223;DHT22;29895;48.804;9.386;2023-05-01T07:54:55;12.40;99.90
44223;DHT22;29895;48.804;9.386;2023-05-01T07:57:20;12.50;99.90
44223;DHT22;29895;48.804;9.386;2023-05-01T07:59:47;12.70;99.90
44223;DHT22;29895;48.804;9.386;2023-05-01T08:02:15;12.80;99.90
44223;DHT22;29895;48.804;9.386;2023-05-01T08:04:41;12.90;99.90
44223;DHT22;29895;48.804;9.386;2023-05-01T08:07:07;13.10;99.90
44223;DHT22;29895;48.804;9.386;2023-05-01T08:09:32;13.10;99.90
44223;DHT22;29895;48.804;9.386;2023-05-01T08:11:58;13.40;99.90
44223;DHT22;29895;48.804;9.386;2023-05-01T08:14:24;13.50;99.90
44223;DHT22;29895;48.804;9.386;2023-05-01T08:16:50;13.60;99.90
44223;DHT22;29895;48.804;9.386;2023-05-01T08:19:20;13.70;99.90
44223;DHT22;29895;48.804;9.386;2023-05-01T08:21:46;13.90;99.90
44223;DHT22;29895;48.804;9.386;2023-05-01T08:24:11;14.00;99.90
44223;DHT22;29895;48.804;9.386;2023-05-01T08:26:37;14.00;99.90
44223;DHT22;29895;48.804;9.386;2023-05-01T08:29:05;14.30;99.90
44223;DHT22;29895;48.804;9.386;2023-05-01T08:31:31;14.10;99.90
44223;DHT22;29895;48.804;9.386;2023-05-01T08:33:56;14.00;99.90
44223;DHT22;29895;48.804;9.386;2023-05-01T08:36:22;14.20;99.90
44223;DHT22;29895;48.804;9.386;2023-05-01T08:38:48;14.40;99.90
44223;DHT22;29895;48.804;9.386;2023-05-01T08:41:19;14.70;99.90
44223;DHT22;29895;48.804;9.386;2023-05-01T08:43:46;14.70;99.90
44223;DHT22;29895;48.804;9.386;2023-05-01T08:46:17;14.90;99.90
44223;DHT22;29895;48.804;9.386;2023-05-01T08:48:46;15.10;99.90
44223;DHT22;29895;48.804;9.386;2023-05-01T08:51:14;15.10;99.90
44223;DHT22;29895;48.804;9.386;2023-05-01T08:53:42;14.90;99.90
44223;DHT22;29895;48.804;9.386;2023-05-01T08:56:12;14.60;99.90
44223;DHT22;29895;48.804;9.386;2023-05-01T08:58:38;14.50;99.90
44223;DHT22;29895;48.804;9.386;2023-05-01T09:01:04;14.60;99.90
44223;DHT22;29895;48.804;9.386;2023-05-01T09:03:31;14.90;99.90
44223;DHT22;29895;48.804;9.386;2023-05-01T09:05:58;15.10;99.90
44223;DHT22;29895;48.804;9.386;2023-05-01T09:08:24;15.40;99.90
44223;DHT22;29895;48.804;9.386;2023-05-01T09:10:51;15.50;99.90
44223;DHT22;29895;48.804;9.386;2023-05-01T09:13:27;15.70;99.90
44223;DHT22;29895;48.804;9.386;2023-05-01T09:15:53;15.60;99.90
44223;DHT22;29895;48.804;9.386;2023-05-01T09:18:18;15.40;99.90
44223;DHT22;29895;48.804;9.386;2023-05-01T09:20:44;14.50;99.90
44223;DHT22;29895;48.804;9.386;2023-05-01T09:23:10;14.20;99.90
44223;DHT22;29895;48.804;9.386;2023-05-01T09:25:36;14.20;99.90
44223;DHT22;29895;48.804;9.386;2023-05-01T09:28:06;14.70;99.90
44223;DHT22;29895;48.804;9.386;2023-05-01T09:30:36;14.80;99.90
44223;DHT22;29895;48.804;9.386;2023-05-01T09:33:13;14.90;99.90
44223;DHT22;29895;48.804;9.386;2023-05-01T09:35:55;14.90;99.90
44223;DHT22;29895;48.804;9.386;2023-05-01T09:38:25;14.90;99.90
44223;DHT22;29895;48.804;9.386;2023-05-01T09:40:55;15.20;99.90
44223;DHT22;29895;48.804;9.386;2023-05-01T09:43:28;15.40;99.90
44223;DHT22;29895;48.804;9.386;2023-05-01T09:46:10;15.60;99.90
44223;DHT22;29895;48.804;9.386;2023-05-01T09:48:37;15.50;99.90
44223;DHT22;29895;48.804;9.386;2023-05-01T09:53:54;16.10;99.90
44223;DHT22;29895;48.804;9.386;2023-05-01T09:56:20;16.00;99.90
44223;DHT22;29895;48.804;9.386;2023-05-01T09:58:47;15.90;99.90
44223;DHT22;29895;48.804;9.386;2023-05-01T10:01:13;16.00;99.90
44223;DHT22;29895;48.804;9.386;2023-05-01T10:03:52;16.10;99.90
44223;DHT22;29895;48.804;9.386;2023-05-01T10:06:25;16.20;99.90
44223;DHT22;29895;48.804;9.386;2023-05-01T10:08:59;16.50;99.90
44223;DHT22;29895;48.804;9.386;2023-05-01T10:11:25;16.50;99.90
44223;DHT22;29895;48.804;9.386;2023-05-01T10:14:12;16.70;99.90
44223;DHT22;29895;48.804;9.386;2023-05-01T10:16:38;16.80;99.90
44223;DHT22;29895;48.804;9.386;2023-05-01T10:19:04;16.90;99.90
44223;DHT22;29895;48.804;9.386;2023-05-01T10:21:31;16.90;99.90
44223;DHT22;29895;48.804;9.386;2023-05-01T10:23:58;16.70;99.90
44223;DHT22;29895;48.804;9.386;2023-05-01T10:26:25;17.20;99.90
44223;DHT22;29895;48.804;9.386;2023-05-01T10:28:52;17.80;99.90
44223;DHT22;29895;48.804;9.386;2023-05-01T10:31:18;17.60;99.90
44223;DHT22;29895;48.804;9.386;2023-05-01T10:33:44;17.80;99.90
44223;DHT22;29895;48.804;9.386;2023-05-01T10:36:18;17.80;99.90
44223;DHT22;29895;48.804;9.386;2023-05-01T10:38:48;17.70;99.90
44223;DHT22;29895;48.804;9.386;2023-05-01T10:41:14;17.60;99.90
44223;DHT22;29895;48.804;9.386;2023-05-01T10:43:41;17.40;99.90
44223;DHT22;29895;48.804;9.386;2023-05-01T10:51:09;17.70;99.90
44223;DHT22;29895;48.804;9.386;2023-05-01T10:53:36;17.70;99.90
44223;DHT22;29895;48.804;9.386;2023-05-01T10:56:02;17.60;99.90
44223;DHT22;29895;48.804;9.386;2023-05-01T11:01:27;17.60;99.90
44223;DHT22;29895;48.804;9.386;2023-05-01T11:12:02;17.30;99.90
44223;DHT22;29895;48.804;9.386;2023-05-01T11:22:38;17.80;99.90
44223;DHT22;29895;48.804;9.386;2023-05-01T11:25:22;17.90;99.90
44223;DHT22;29895;48.804;9.386;2023-05-01T11:27:49;18.30;99.90
44223;DHT22;29895;48.804;9.386;2023-05-01T11:30:16;18.60;99.90
44223;DHT22;29895;48.804;9.386;2023-05-01T11:32:43;18.80;99.90
44223;DHT22;29895;48.804;9.386;2023-05-01T11:35:23;18.30;99.90
44223;DHT22;29895;48.804;9.386;2023-05-01T11:37:51;18.40;99.90
44223;DHT22;29895;48.804;9.386;2023-05-01T11:40:22;18.20;99.90
44223;DHT22;29895;48.804;9.386;2023-05-01T11:42:49;17.70;99.90
44223;DHT22;29895;48.804;9.386;2023-05-01T11:45:17;17.70;99.90
44223;DHT22;29895;48.804;9.386;2023-05-01T11:47:43;17.80;99.90
44223;DHT22;29895;48.804;9.386;2023-05-01T11:50:09;18.00;99.90
44223;DHT22;29895;48.804;9.386;2023-05-01T11:55:15;18.00;99.90
44223;DHT22;29895;48.804;9.386;2023-05-01T11:58:16;18.10;99.90
44223;DHT22;29895;48.804;9.386;2023-05-01T12:00:42;18.10;99.90
44223;DHT22;29895;48.804;9.386;2023-05-01T12:03:12;18.30;99.90
44223;DHT22;29895;48.804;9.386;2023-05-01T12:05:40;18.40;99.90
44223;DHT22;29895;48.804;9.386;2023-05-01T12:10:37;17.60;99.90
44223;DHT22;29895;48.804;9.386;2023-05-01T12:13:03;17.60;99.90
44223;DHT22;29895;48.804;9.386;2023-05-01T12:15:30;17.40;99.90
44223;DHT22;29895;48.804;9.386;2023-05-01T12:17:56;17.10;99.90
44223;DHT22;29895;48.804;9.386;2023-05-01T12:23:02;17.00;99.90
44223;DHT22;29895;48.804;9.386;2023-05-01T12:25:42;16.70;99.90
44223;DHT22;29895;48.804;9.386;2023-05-01T12:28:16;16.60;99.90
44223;DHT22;29895;48.804;9.386;2023-05-01T12:30:50;17.20;99.90
44223;DHT22;29895;48.804;9.386;2023-05-01T12:33:19;17.60;99.90
44223;DHT22;29895;48.804;9.386;2023-05-01T12:35:47;17.90;99.90
44223;DHT22;29895;48.804;9.386;2023-05-01T12:43:16;18.70;99.90
44223;DHT22;29895;48.804;9.386;2023-05-01T12:45:42;19.00;99.90
44223;DHT22;29895;48.804;9.386;2023-05-01T12:48:11;18.90;99.90
44223;DHT22;29895;48.804;9.386;2023-05-01T12:50:39;18.90;99.90
44223;DHT22;29895;48.804;9.386;2023-05-01T12:53:05;19.10;99.90
44223;DHT22;29895;48.804;9.386;2023-05-01T12:55:42;19.20;99.90
44223;DHT22;29895;48.804;9.386;2023-05-01T12:58:12;19.40;99.90
44223;DHT22;29895;48.804;9.386;2023-05-01T13:00:52;19.20;99.90
44223;DHT22;29895;48.804;9.386;2023-05-01T13:03:24;19.40;99.70
44223;DHT22;29895;48.804;9.386;2023-05-01T13:06:02;19.10;99.40
44223;DHT22;29895;48.804;9.386;2023-05-01T13:08:37;18.90;99.70
44223;DHT22;29895;48.804;9.386;2023-05-01T13:11:14;18.90;99.50
44223;DHT22;29895;48.804;9.386;2023-05-01T13:13:47;18.70;99.90
44223;DHT22;29895;48.804;9.386;2023-05-01T13:16:15;18.80;99.70
44223;DHT22;29895;48.804;9.386;2023-05-01T13:18:51;19.10;99.90
44223;DHT22;29895;48.804;9.386;2023-05-01T13:21:21;18.90;99.90
44223;DHT22;29895;48.804;9.386;2023-05-01T13:24:02;18.70;99.90
44223;DHT22;29895;48.804;9.386;2023-05-01T13:26:32;18.30;99.90
44223;DHT22;29895;48.804;9.386;2023-05-01T13:29:00;18.20;99.90
44223;DHT22;29895;48.804;9.386;2023-05-01T13:31:27;18.00;99.90
44223;DHT22;29895;48.804;9.386;2023-05-01T13:33:54;18.30;99.90
44223;DHT22;29895;48.804;9.386;2023-05-01T13:36:22;18.50;99.90
44223;DHT22;29895;48.804;9.386;2023-05-01T13:38:52;18.40;99.90
44223;DHT22;29895;48.804;9.386;2023-05-01T13:41:19;18.20;99.90
44223;DHT22;29895;48.804;9.386;2023-05-01T13:43:49;18.20;99.90
44223;DHT22;29895;48.804;9.386;2023-05-01T13:46:16;18.30;99.90
44223;DHT22;29895;48.804;9.386;2023-05-01T13:48:43;18.00;99.90
44223;DHT22;29895;48.804;9.386;2023-05-01T13:51:12;17.90;99.90
44223;DHT22;29895;48.804;9.386;2023-05-01T13:53:39;18.00;99.90
44223;DHT22;29895;48.804;9.386;2023-05-01T13:56:14;18.10;99.90
44223;DHT22;29895;48.804;9.386;2023-05-01T13:58:40;18.00;99.90
44223;DHT22;29895;48.804;9.386;2023-05-01T14:01:17;17.80;99.90
44223;DHT22;29895;48.804;9.386;2023-05-01T14:03:44;17.80;99.90
44223;DHT22;29895;48.804;9.386;2023-05-01T14:06:16;17.70;99.90
44223;DHT22;29895;48.804;9.386;2023-05-01T14:08:43;17.70;99.90
44223;DHT22;29895;48.804;9.386;2023-05-01T14:11:10;17.60;99.90
44223;DHT22;29895;48.804;9.386;2023-05-01T14:13:42;17.50;99.90
44223;DHT22;29895;48.804;9.386;2023-05-01T14:16:10;17.30;99.90
44223;DHT22;29895;48.804;9.386;2023-05-01T14:18:46;17.10;99.90
44223;DHT22;29895;48.804;9.386;2023-05-01T14:21:16;17.20;99.90
44223;DHT22;29895;48.804;9.386;2023-05-01T14:23:43;17.20;99.90
44223;DHT22;29895;48.804;9.386;2023-05-01T14:26:09;17.20;99.90
44223;DHT22;29895;48.804;9.386;2023-05-01T14:28:45;17.30;99.90
44223;DHT22;29895;48.804;9.386;2023-05-01T14:31:32;17.30;99.90
44223;DHT22;29895;48.804;9.386;2023-05-01T14:34:04;17.20;99.90
44223;DHT22;29895;48.804;9.386;2023-05-01T14:36:32;17.20;99.90
44223;DHT22;29895;48.804;9.386;2023-05-01T14:39:00;17.10;99.90
44223;DHT22;29895;48.804;9.386;2023-05-01T14:41:26;17.00;99.90
44223;DHT22;29895;48.804;9.386;2023-05-01T14:43:52;16.70;99.90
44223;DHT22;29895;48.804;9.386;2023-05-01T14:46:45;16.40;99.90
44223;DHT22;29895;48.804;9.386;2023-05-01T14:49:17;16.30;99.90
44223;DHT22;29895;48.804;9.386;2023-05-01T14:51:43;16.50;99.90
44223;DHT22;29895;48.804;9.386;2023-05-01T14:54:09;16.60;99.90
44223;DHT22;29895;48.804;9.386;2023-05-01T14:56:36;16.80;99.90
44223;DHT22;29895;48.804;9.386;2023-05-01T14:59:01;16.80;99.90
44223;DHT22;29895;48.804;9.386;2023-05-01T15:01:28;16.80;99.90
44223;DHT22;29895;48.804;9.386;2023-05-01T15:03:54;16.90;99.90
44223;DHT22;29895;48.804;9.386;2023-05-01T15:06:19;17.00;99.90
44223;DHT22;29895;48.804;9.386;2023-05-01T15:08:45;17.10;99.90
44223;DHT22;29895;48.804;9.386;2023-05-01T15:11:25;17.20;99.90
44223;DHT22;29895;48.804;9.386;2023-05-01T15:13:53;17.20;99.90
44223;DHT22;29895;48.804;9.386;2023-05-01T15:16:18;17.30;99.90
44223;DHT22;29895;48.804;9.386;2023-05-01T15:18:44;17.30;99.90
44223;DHT22;29895;48.804;9.386;2023-05-01T15:21:10;17.40;99.90
44223;DHT22;29895;48.804;9.386;2023-05-01T15:23:35;17.30;99.90
44223;DHT22;29895;48.804;9.386;2023-05-01T15:26:02;17.30;99.90
44223;DHT22;29895;48.804;9.386;2023-05-01T15:28:28;17.20;99.90
44223;DHT22;29895;48.804;9.386;2023-05-01T15:30:54;17.30;99.90
44223;DHT22;29895;48.804;9.386;2023-05-01T15:33:20;17.20;99.90
44223;DHT22;29895;48.804;9.386;2023-05-01T15:35:47;17.20;99.90
44223;DHT22;29895;48.804;9.386;2023-05-01T15:38:17;17.30;99.90
44223;DHT22;29895;48.804;9.386;2023-05-01T15:40:44;17.30;99.90
44223;DHT22;29895;48.804;9.386;2023-05-01T15:43:10;17.40;99.90
44223;DHT22;29895;48.804;9.386;2023-05-01T15:45:39;17.40;99.90
44223;DHT22;29895;48.804;9.386;2023-05-01T15:48:07;17.30;99.90
44223;DHT22;29895;48.804;9.386;2023-05-01T15:50:33;17.40;99.90
44223;DHT22;29895;48.804;9.386;2023-05-01T15:52:59;17.50;99.90
44223;DHT22;29895;48.804;9.386;2023-05-01T15:55:24;17.60;99.90
44223;DHT22;29895;48.804;9.386;2023-05-01T15:57:50;17.60;99.90
44223;DHT22;29895;48.804;9.386;2023-05-01T16:00:16;17.60;99.90
44223;DHT22;29895;48.804;9.386;2023-05-01T16:02:42;17.60;99.90
44223;DHT22;29895;48.804;9.386;2023-05-01T16:05:09;17.50;99.90
44223;DHT22;29895;48.804;9.386;2023-05-01T16:07:35;17.60;99.90
44223;DHT22;29895;48.804;9.386;2023-05-01T16:10:01;17.60;99.90
44223;DHT22;29895;48.804;9.386;2023-05-01T16:12:27;17.50;99.90
44223;DHT22;29895;48.804;9.386;2023-05-01T16:14:53;17.30;99.90
44223;DHT22;29895;48.804;9.386;2023-05-01T16:17:18;17.20;99.90
44223;DHT22;29895;48.804;9.386;2023-05-01T16:19:45;17.20;99.90
44223;DHT22;29895;48.804;9.386;2023-05-01T16:22:13;17.20;99.90
44223;DHT22;29895;48.804;9.386;2023-05-01T16:24:39;17.10;99.90
44223;DHT22;29895;48.804;9.386;2023-05-01T16:27:10;17.00;99.90
44223;DHT22;29895;48.804;9.386;2023-05-01T16:29:37;17.00;99.90
44223;DHT22;29895;48.804;9.386;2023-05-01T16:32:03;16.90;99.90
44223;DHT22;29895;48.804;9.386;2023-05-01T16:34:30;17.00;99.90
44223;DHT22;29895;48.804;9.386;2023-05-01T16:36:56;16.90;99.90